Jeppesen Maersk — OWTW2 — position and weather

sailwx.info

Track history (hours):
 
Tides and Currents Weather Stations Pressure Air Temp Water Temp Dewpoint Dewpoint Depression Visibility Wind Speed Wind Dir Waves Ship Positions

Jeppesen Maersk

Last reported at 2014-Nov-19 21:07 UTC. Time now 2014-Nov-26 07:45 UTC.
Position N 01°12' E 103°38'.

Type: Cargo ship. MMSI: 219953000.

Date/timePositionNaut miles runAvg speedWind from/ knotsBaromVisibWave heightAir tempDewpointWater temp
2014-Nov-19 21:07N 01°12' E 103°38'712.4
2014-Nov-19 20:33N 01°16' E 103°44'2 1.8
2014-Nov-19 19:24N 01°17' E 103°45'0 0.1
2014-Nov-19 18:30N 01°17' E 103°45'0 0.0
2014-Nov-19 16:33N 01°17' E 103°45'0 0.1
2014-Nov-19 15:24N 01°17' E 103°45'0 0.0
2014-Nov-19 14:33N 01°17' E 103°45'0 0.1
2014-Nov-19 13:30N 01°17' E 103°45'0 0.1
2014-Nov-19 12:18N 01°17' E 103°45'0 0.0
2014-Nov-19 11:24N 01°17' E 103°45'0 0.3
2014-Nov-19 10:33N 01°17' E 103°45'3 2.6
2014-Nov-19 09:32N 01°15' E 103°44'8 7.1
2014-Nov-19 08:23N 01°13' E 103°36'4 3.1
2014-Nov-19 07:16N 01°13' E 103°33'1 0.0
2014-Nov-17 20:15N 01°14' E 103°32'  
2014-Nov-13 07:17N 01°12' E 103°36'811.4
2014-Nov-13 06:33N 01°15' E 103°44'3 2.1
2014-Nov-13 05:18N 01°17' E 103°46'0 0.0
2014-Nov-13 04:30N 01°17' E 103°46'0 0.0
2014-Nov-13 03:33N 01°17' E 103°46'0 0.0
2014-Nov-13 02:18N 01°17' E 103°46'0 0.0
2014-Nov-13 01:30N 01°17' E 103°46'0 0.1
2014-Nov-13 00:30N 01°17' E 103°46'0 0.1
2014-Nov-12 23:30N 01°17' E 103°46'0 0.0
2014-Nov-12 22:30N 01°17' E 103°46'0 0.0
2014-Nov-12 21:21N 01°17' E 103°46'0 0.0
2014-Nov-12 19:30N 01°17' E 103°46'0 0.1
2014-Nov-12 18:30N 01°17' E 103°46'0 0.0
2014-Nov-12 17:33N 01°17' E 103°46'0 0.0
2014-Nov-12 16:30N 01°17' E 103°46'1 1.2
2014-Nov-12 15:33N 01°16' E 103°46'7 7.0
2014-Nov-12 14:29N 01°12' E 103°39'11 0.3
2014-Nov-10 23:07N 01°21' E 103°33'0 0.0
2014-Nov-10 22:28N 01°21' E 103°33'  
Track history (hours):
 
Tides and Currents Weather Stations Pressure Air Temp Water Temp Dewpoint Dewpoint Depression Visibility Wind Speed Wind Dir Waves Ship Positions

Jeppesen Maersk

Last reported at 2014-Nov-19 21:07 UTC. Time now 2014-Nov-26 07:45 UTC.
Position N 01°12' E 103°38'.

Type: Cargo ship. MMSI: 219953000.

Date/timePositionNaut miles runAvg speedWind from/ knotsBaromVisibWave heightAir tempDewpointWater temp
2014-Nov-19 21:07N 01°12' E 103°38'712.4
2014-Nov-19 20:33N 01°16' E 103°44'2 1.8
2014-Nov-19 19:24N 01°17' E 103°45'0 0.1
2014-Nov-19 18:30N 01°17' E 103°45'0 0.0
2014-Nov-19 16:33N 01°17' E 103°45'0 0.1
2014-Nov-19 15:24N 01°17' E 103°45'0 0.0
2014-Nov-19 14:33N 01°17' E 103°45'0 0.1
2014-Nov-19 13:30N 01°17' E 103°45'0 0.1
2014-Nov-19 12:18N 01°17' E 103°45'0 0.0
2014-Nov-19 11:24N 01°17' E 103°45'0 0.3
2014-Nov-19 10:33N 01°17' E 103°45'3 2.6
2014-Nov-19 09:32N 01°15' E 103°44'8 7.1
2014-Nov-19 08:23N 01°13' E 103°36'4 3.1
2014-Nov-19 07:16N 01°13' E 103°33'1 0.0
2014-Nov-17 20:15N 01°14' E 103°32'  
2014-Nov-13 07:17N 01°12' E 103°36'811.4
2014-Nov-13 06:33N 01°15' E 103°44'3 2.1
2014-Nov-13 05:18N 01°17' E 103°46'0 0.0
2014-Nov-13 04:30N 01°17' E 103°46'0 0.0
2014-Nov-13 03:33N 01°17' E 103°46'0 0.0
2014-Nov-13 02:18N 01°17' E 103°46'0 0.0
2014-Nov-13 01:30N 01°17' E 103°46'0 0.1
2014-Nov-13 00:30N 01°17' E 103°46'0 0.1
2014-Nov-12 23:30N 01°17' E 103°46'0 0.0
2014-Nov-12 22:30N 01°17' E 103°46'0 0.0
2014-Nov-12 21:21N 01°17' E 103°46'0 0.0
2014-Nov-12 19:30N 01°17' E 103°46'0 0.1
2014-Nov-12 18:30N 01°17' E 103°46'0 0.0
2014-Nov-12 17:33N 01°17' E 103°46'0 0.0
2014-Nov-12 16:30N 01°17' E 103°46'1 1.2
2014-Nov-12 15:33N 01°16' E 103°46'7 7.0
2014-Nov-12 14:29N 01°12' E 103°39'11 0.3
2014-Nov-10 23:07N 01°21' E 103°33'0 0.0
2014-Nov-10 22:28N 01°21' E 103°33'  

Dump ship's entire track history